createdAt,value
2018-12-04T00:00:30.514Z,99043.03
2018-12-04T00:01:36.158Z,99038.55
2018-12-04T00:02:41.791Z,99037.02
2018-12-04T00:03:47.450Z,99037.62
2018-12-04T00:04:53.107Z,99037.44
2018-12-04T00:05:59.165Z,99038.88
2018-12-04T00:07:04.940Z,99040.86
2018-12-04T00:08:10.231Z,99044.34
2018-12-04T00:09:15.872Z,99046.69
2018-12-04T00:10:21.492Z,99048.16
2018-12-04T00:11:27.083Z,99045.45
2018-12-04T00:12:32.720Z,99048.07
2018-12-04T00:13:38.426Z,99046.43
2018-12-04T00:14:44.053Z,99053.49
2018-12-04T00:15:49.660Z,99052.30
2018-12-04T00:16:55.256Z,99055.68
2018-12-04T00:18:00.520Z,99055.48
2018-12-04T00:19:06.155Z,99059.55
2018-12-04T00:20:11.752Z,99055.25
2018-12-04T00:21:17.377Z,99053.59
2018-12-04T00:22:23.028Z,99062.10
2018-12-04T00:23:28.626Z,99057.99
2018-12-04T00:24:34.338Z,99068.06
2018-12-04T00:25:40.205Z,99066.38
2018-12-04T00:26:45.889Z,99064.28
2018-12-04T00:27:51.473Z,99066.72
2018-12-04T00:28:57.153Z,99073.97
2018-12-04T00:30:02.824Z,99067.62
2018-12-04T00:31:08.422Z,99074.48
2018-12-04T00:32:14.037Z,99067.56
2018-12-04T00:33:19.673Z,99068.88
2018-12-04T00:34:25.278Z,99068.95
2018-12-04T00:35:30.872Z,99072.60
2018-12-04T00:36:36.533Z,99069.41
2018-12-04T00:37:42.180Z,99072.41
2018-12-04T00:38:47.833Z,99066.05
2018-12-04T00:39:53.445Z,99068.05
2018-12-04T00:40:59.087Z,99066.14
2018-12-04T00:42:03.986Z,99076.47
2018-12-04T00:43:09.585Z,99064.83
2018-12-04T00:44:15.269Z,99063.63
2018-12-04T00:45:20.900Z,99066.30
2018-12-04T00:46:26.200Z,99064.48
2018-12-04T00:47:31.827Z,99067.54
2018-12-04T00:48:38.049Z,99066.57
2018-12-04T00:49:44.254Z,99067.36
2018-12-04T00:50:49.869Z,99070.48
2018-12-04T00:51:55.574Z,99072.27
2018-12-04T00:53:01.265Z,99070.87
2018-12-04T00:54:06.565Z,99072.92
2018-12-04T00:55:12.185Z,99074.36
2018-12-04T00:56:17.841Z,99078.85
2018-12-04T00:57:23.442Z,99082.61
2018-12-04T00:58:29.050Z,99082.65
2018-12-04T00:59:34.727Z,99086.05
2018-12-04T01:00:40.323Z,99087.36
2018-12-04T01:01:45.931Z,99088.75
2018-12-04T01:02:51.516Z,99086.41
2018-12-04T01:03:57.183Z,99088.99
2018-12-04T01:05:02.800Z,99088.23
2018-12-04T01:06:08.433Z,99088.59
2018-12-04T01:07:14.076Z,99087.35
2018-12-04T01:08:19.720Z,99092.34
2018-12-04T01:09:25.352Z,99097.02
2018-12-04T01:10:31.065Z,99102.56
2018-12-04T01:11:36.668Z,99102.72
2018-12-04T01:12:42.316Z,99110.43
2018-12-04T01:13:47.895Z,99108.31
2018-12-04T01:14:53.589Z,99106.52
2018-12-04T01:15:58.878Z,99106.52
2018-12-04T01:17:04.126Z,99106.86
2018-12-04T01:18:09.744Z,99107.41
2018-12-04T01:19:15.402Z,99111.16
2018-12-04T01:20:21.060Z,99110.52
2018-12-04T01:21:26.693Z,99106.36
2018-12-04T01:22:32.345Z,99109.92
2018-12-04T01:23:38.003Z,99107.84
2018-12-04T01:24:43.671Z,99111.88
2018-12-04T01:25:49.309Z,99110.72
2018-12-04T01:26:54.896Z,99115.17
2018-12-04T01:28:00.180Z,99111.73
2018-12-04T01:29:05.801Z,99117.08
2018-12-04T01:30:10.733Z,99121.39
2018-12-04T01:31:16.410Z,99117.87
2018-12-04T01:32:22.054Z,99118.97
2018-12-04T01:33:28.160Z,99121.59
2018-12-04T01:34:34.212Z,99121.81
2018-12-04T01:35:40.716Z,99123.18
2018-12-04T01:36:46.343Z,99134.60
2018-12-04T01:37:51.953Z,99126.70
2018-12-04T01:38:57.579Z,99134.55
2018-12-04T01:40:03.101Z,99134.47
2018-12-04T01:41:09.021Z,99137.81
2018-12-04T01:42:14.649Z,99126.86
2018-12-04T01:43:20.290Z,99131.25
2018-12-04T01:44:25.905Z,99133.04
2018-12-04T01:45:31.522Z,99128.20
2018-12-04T01:46:37.159Z,99125.92
2018-12-04T01:47:42.780Z,99136.42
2018-12-04T01:48:48.432Z,99136.20
2018-12-04T01:49:54.075Z,99136.84
2018-12-04T01:50:59.772Z,99134.70
2018-12-04T01:52:05.469Z,99139.26
2018-12-04T01:53:11.098Z,99139.05
2018-12-04T01:54:16.719Z,99130.16
2018-12-04T01:55:23.443Z,99140.58
2018-12-04T01:56:29.061Z,99140.32
2018-12-04T01:57:34.670Z,99136.97
2018-12-04T01:58:40.293Z,99139.55
2018-12-04T01:59:45.972Z,99142.61
2018-12-04T02:00:51.572Z,99146.31
2018-12-04T02:01:56.177Z,99149.48
2018-12-04T02:03:01.768Z,99149.63
2018-12-04T02:04:07.394Z,99153.73
2018-12-04T02:05:12.670Z,99157.35
2018-12-04T02:06:17.937Z,99165.52
2018-12-04T02:07:23.604Z,99157.27
2018-12-04T02:08:29.266Z,99164.00
2018-12-04T02:09:34.950Z,99163.96
2018-12-04T02:10:39.913Z,99159.91
2018-12-04T02:11:45.552Z,99163.28
2018-12-04T02:12:51.150Z,99158.03
2018-12-04T02:13:56.751Z,99165.36
2018-12-04T02:15:02.397Z,99166.67
2018-12-04T02:16:08.033Z,99165.57
2018-12-04T02:17:13.640Z,99162.03
2018-12-04T02:18:19.261Z,99160.39
2018-12-04T02:19:24.884Z,99161.17
2018-12-04T02:20:30.535Z,99161.41
2018-12-04T02:21:35.820Z,99155.61
2018-12-04T02:22:41.460Z,99165.91
2018-12-04T02:23:47.056Z,99165.70
2018-12-04T02:24:52.692Z,99168.13
2018-12-04T02:25:58.336Z,99167.73
2018-12-04T02:27:03.938Z,99170.48
2018-12-04T02:28:09.570Z,99170.88
2018-12-04T02:29:15.199Z,99165.86
2018-12-04T02:30:20.883Z,99171.16
2018-12-04T02:31:26.497Z,99173.30
2018-12-04T02:32:32.098Z,99178.98
2018-12-04T02:33:37.781Z,99180.14
2018-12-04T02:34:43.415Z,99180.55
2018-12-04T02:35:49.076Z,99180.09
2018-12-04T02:36:54.677Z,99179.58
2018-12-04T02:38:00.335Z,99180.47
2018-12-04T02:39:05.322Z,99176.62
2018-12-04T02:40:11.007Z,99181.88
2018-12-04T02:41:16.670Z,99189.18
2018-12-04T02:42:22.056Z,99188.70
2018-12-04T02:43:28.679Z,99185.95
2018-12-04T02:44:34.332Z,99190.12
2018-12-04T02:45:39.951Z,99195.97
2018-12-04T02:46:45.577Z,99190.16
2018-12-04T02:47:51.198Z,99195.43
2018-12-04T02:48:56.445Z,99201.02
2018-12-04T02:50:02.127Z,99196.72
2018-12-04T02:51:07.763Z,99202.57
2018-12-04T02:52:13.413Z,99204.48
2018-12-04T02:53:19.055Z,99201.04
2018-12-04T02:54:24.728Z,99213.34
2018-12-04T02:55:30.402Z,99218.39
2018-12-04T02:56:36.023Z,99255.20
2018-12-04T02:57:41.713Z,99272.98
2018-12-04T02:58:47.361Z,99281.19
2018-12-04T02:59:53.048Z,99288.56
2018-12-04T03:00:58.727Z,99283.98
2018-12-04T03:02:03.796Z,99285.09
2018-12-04T03:03:09.413Z,99286.58
2018-12-04T03:04:15.071Z,99283.13
2018-12-04T03:05:20.770Z,99295.92
2018-12-04T03:06:26.401Z,99292.73
2018-12-04T03:07:32.104Z,99286.83
2018-12-04T03:08:37.777Z,99294.88
2018-12-04T03:09:43.420Z,99305.08
2018-12-04T03:10:49.084Z,99303.92
2018-12-04T03:11:54.358Z,99315.89
2018-12-04T03:12:59.671Z,99311.14
2018-12-04T03:14:04.964Z,99318.61
2018-12-04T03:15:10.624Z,99318.80
2018-12-04T03:16:15.916Z,99321.86
2018-12-04T03:17:21.578Z,99320.59
2018-12-04T03:18:27.252Z,99327.37
2018-12-04T03:19:32.896Z,99322.75
2018-12-04T03:20:38.570Z,99326.83
2018-12-04T03:21:44.207Z,99339.81
2018-12-04T03:22:49.922Z,99335.86
2018-12-04T03:23:55.541Z,99341.41
2018-12-04T03:25:01.172Z,99346.42
2018-12-04T03:26:06.818Z,99349.39
2018-12-04T03:27:12.472Z,99351.23
2018-12-04T03:28:18.109Z,99361.50
2018-12-04T03:29:23.781Z,99369.87
2018-12-04T03:30:29.483Z,99374.77
2018-12-04T03:31:35.157Z,99375.95
2018-12-04T03:32:40.786Z,99380.42
2018-12-04T03:33:46.439Z,99393.98
2018-12-04T03:34:52.096Z,99379.67
2018-12-04T03:35:57.745Z,99393.09
2018-12-04T03:37:03.389Z,99393.11
2018-12-04T03:38:09.042Z,99399.56
2018-12-04T03:39:14.678Z,99406.75
2018-12-04T03:40:20.346Z,99404.77
2018-12-04T03:41:26.024Z,99406.53
2018-12-04T03:42:31.671Z,99422.29
2018-12-04T03:43:37.343Z,99420.30
2018-12-04T03:44:43.550Z,99420.00
2018-12-04T03:45:49.233Z,99427.09
2018-12-04T03:46:54.873Z,99428.77
2018-12-04T03:48:00.490Z,99430.63
2018-12-04T03:49:06.125Z,99438.38
2018-12-04T03:50:11.772Z,99440.53
2018-12-04T03:51:17.477Z,99444.22
2018-12-04T03:52:23.082Z,99445.07
2018-12-04T03:53:28.751Z,99450.78
2018-12-04T03:54:34.408Z,99454.70
2018-12-04T03:55:40.002Z,99455.44
2018-12-04T03:56:45.692Z,99465.66
2018-12-04T03:57:51.357Z,99466.15
2018-12-04T03:58:57.010Z,99466.05
2018-12-04T04:00:02.671Z,99468.84
2018-12-04T04:01:08.016Z,99475.57
2018-12-04T04:02:13.681Z,99480.36
2018-12-04T04:03:19.290Z,99485.16
2018-12-04T04:04:24.957Z,99482.87
2018-12-04T04:05:30.640Z,99497.01
2018-12-04T04:06:36.284Z,99494.27
2018-12-04T04:07:41.969Z,99494.88
2018-12-04T04:08:47.610Z,99495.46
2018-12-04T04:09:53.280Z,99501.63
2018-12-04T04:10:58.564Z,99504.25
2018-12-04T04:12:03.838Z,99508.30
2018-12-04T04:13:09.530Z,99512.06
2018-12-04T04:14:15.293Z,99512.86
2018-12-04T04:15:20.935Z,99519.08
2018-12-04T04:16:26.602Z,99519.47
2018-12-04T04:17:32.244Z,99517.86
2018-12-04T04:18:37.887Z,99525.15
2018-12-04T04:19:43.558Z,99521.92
2018-12-04T04:20:48.865Z,99518.14
2018-12-04T04:21:54.507Z,99515.34
2018-12-04T04:23:00.164Z,99516.77
2018-12-04T04:24:05.768Z,99518.75
2018-12-04T04:25:11.441Z,99520.46
2018-12-04T04:26:17.120Z,99521.44
2018-12-04T04:27:22.827Z,99528.11
2018-12-04T04:28:28.449Z,99520.22
2018-12-04T04:29:34.154Z,99525.12
2018-12-04T04:30:39.804Z,99521.44
2018-12-04T04:31:45.461Z,99526.17
2018-12-04T04:32:51.093Z,99530.34
2018-12-04T04:33:56.830Z,99533.53
2018-12-04T04:35:02.585Z,99531.10
2018-12-04T04:36:08.389Z,99535.93
2018-12-04T04:37:14.273Z,99542.00
2018-12-04T04:38:19.928Z,99538.38
2018-12-04T04:39:25.585Z,99548.76
2018-12-04T04:40:31.242Z,99547.17
2018-12-04T04:41:36.873Z,99552.12
2018-12-04T04:42:42.569Z,99549.91
2018-12-04T04:43:48.202Z,99557.99
2018-12-04T04:44:53.871Z,99560.01
2018-12-04T04:45:59.509Z,99559.14
2018-12-04T04:47:04.855Z,99562.06
2018-12-04T04:48:10.488Z,99564.47
2018-12-04T04:49:16.182Z,99565.47
2018-12-04T04:50:21.855Z,99563.77
2018-12-04T04:51:28.382Z,99580.91
2018-12-04T04:52:34.032Z,99576.62
2018-12-04T04:53:39.748Z,99586.30
2018-12-04T04:54:45.380Z,99581.16
2018-12-04T04:55:51.045Z,99588.79
2018-12-04T04:56:56.718Z,99596.13
2018-12-04T04:58:02.335Z,99604.16
2018-12-04T04:59:07.956Z,99604.02
2018-12-04T05:00:13.605Z,99616.34
2018-12-04T05:01:19.220Z,99614.21
2018-12-04T05:02:24.845Z,99621.52
2018-12-04T05:03:30.503Z,99618.68
2018-12-04T05:04:36.146Z,99621.17
2018-12-04T05:05:41.824Z,99631.91
2018-12-04T05:06:47.472Z,99636.34
2018-12-04T05:07:53.136Z,99637.98
2018-12-04T05:08:58.917Z,99643.30
2018-12-04T05:10:03.850Z,99652.48
2018-12-04T05:11:09.949Z,99650.69
2018-12-04T05:12:16.042Z,99655.97
2018-12-04T05:13:21.673Z,99657.14
2018-12-04T05:14:27.310Z,99670.48
2018-12-04T05:15:32.942Z,99677.45
2018-12-04T05:16:38.581Z,99678.18
2018-12-04T05:17:44.294Z,99689.39
2018-12-04T05:18:49.973Z,99689.97
2018-12-04T05:19:55.609Z,99692.64
2018-12-04T05:21:01.298Z,99693.58
2018-12-04T05:22:06.925Z,99699.11
2018-12-04T05:25:05.176Z,99708.69
2018-12-04T05:26:10.892Z,99707.77
2018-12-04T05:27:16.577Z,99706.61
2018-12-04T05:28:21.835Z,99715.86
2018-12-04T05:29:27.407Z,99715.93
2018-12-04T05:30:32.999Z,99723.59
2018-12-04T05:31:39.583Z,99722.98
2018-12-04T05:32:45.188Z,99731.76
2018-12-04T05:33:50.801Z,99737.53
2018-12-04T05:34:57.681Z,99737.39
2018-12-04T05:36:03.401Z,99735.27
2018-12-04T05:37:09.021Z,99744.91
2018-12-04T05:38:14.290Z,99745.93
2018-12-04T05:39:19.901Z,99750.42
2018-12-04T05:40:25.548Z,99752.75
2018-12-04T05:41:31.140Z,99755.95
2018-12-04T05:42:36.751Z,99757.54
2018-12-04T05:43:42.337Z,99762.63
2018-12-04T05:44:47.969Z,99758.03
2018-12-04T05:45:53.582Z,99768.59
2018-12-04T05:46:59.204Z,99773.05
2018-12-04T05:48:04.797Z,99778.48
2018-12-04T05:49:10.420Z,99778.54
2018-12-04T05:50:16.057Z,99775.15
2018-12-04T05:51:21.680Z,99781.60
2018-12-04T05:52:27.281Z,99785.28
2018-12-04T05:53:32.227Z,99782.70
2018-12-04T05:54:38.005Z,99788.50
2018-12-04T05:55:43.649Z,99787.33
2018-12-04T05:56:49.273Z,99796.96
2018-12-04T05:57:54.875Z,99806.86
2018-12-04T05:59:00.510Z,99808.57
2018-12-04T06:00:05.276Z,99812.86
2018-12-04T06:01:10.897Z,99812.59
2018-12-04T06:02:16.519Z,99820.48
2018-12-04T06:03:22.112Z,99813.13
2018-12-04T06:04:27.727Z,99820.62
2018-12-04T06:05:33.361Z,99815.98
2018-12-04T06:06:38.945Z,99819.88
2018-12-04T06:07:44.560Z,99820.01
2018-12-04T06:08:50.143Z,99826.33
2018-12-04T06:09:55.763Z,99820.25
2018-12-04T06:11:01.472Z,99832.89
2018-12-04T06:12:07.085Z,99824.99
2018-12-04T06:13:12.658Z,99838.89
2018-12-04T06:14:18.260Z,99833.77
2018-12-04T06:15:23.882Z,99836.59
2018-12-04T06:16:29.152Z,99848.86
2018-12-04T06:17:34.754Z,99845.50
2018-12-04T06:18:40.394Z,99855.66
2018-12-04T06:19:45.647Z,99857.50
2018-12-04T06:20:51.293Z,99857.75
2018-12-04T06:21:57.578Z,99862.99
2018-12-04T06:23:03.780Z,99869.75
2018-12-04T06:24:09.358Z,99868.20
2018-12-04T06:25:14.989Z,99875.70
2018-12-04T06:26:20.623Z,99880.59
2018-12-04T06:27:26.268Z,99883.45
2018-12-04T06:28:31.911Z,99879.37
2018-12-04T06:29:37.629Z,99892.79
2018-12-04T06:30:43.296Z,99886.31
2018-12-04T06:31:48.919Z,99895.16
2018-12-04T06:32:54.489Z,99895.95
2018-12-04T06:34:00.114Z,99894.16
2018-12-04T06:35:05.077Z,99901.87
2018-12-04T06:36:10.713Z,99900.81
2018-12-04T06:37:16.300Z,99903.79
2018-12-04T06:38:21.909Z,99907.53
2018-12-04T06:39:27.537Z,99907.56
2018-12-04T06:40:33.117Z,99909.05
2018-12-04T06:41:38.771Z,99912.72
2018-12-04T06:42:44.449Z,99912.45
2018-12-04T06:43:50.056Z,99910.44
2018-12-04T06:44:55.647Z,99915.68
2018-12-04T06:46:01.299Z,99919.02
2018-12-04T06:47:06.917Z,99923.75
2018-12-04T06:48:13.019Z,99935.66
2018-12-04T06:49:18.920Z,99931.38
2018-12-04T06:50:24.548Z,99939.05
2018-12-04T06:51:30.210Z,99949.20
2018-12-04T06:52:35.830Z,99955.73
2018-12-04T06:53:41.439Z,99947.96
2018-12-04T06:54:47.073Z,99947.91
2018-12-04T06:55:52.714Z,99953.66
2018-12-04T06:56:58.366Z,99962.69
2018-12-04T06:58:03.995Z,99964.95
2018-12-04T06:59:09.828Z,99970.87
2018-12-04T07:00:15.461Z,99975.55
2018-12-04T07:01:21.106Z,99976.81
2018-12-04T07:02:26.694Z,99973.13
2018-12-04T07:03:32.639Z,99988.78
2018-12-04T07:04:38.367Z,99987.98
2018-12-04T07:05:43.952Z,99997.28
2018-12-04T07:06:49.626Z,100001.25
2018-12-04T07:07:55.327Z,100002.65
2018-12-04T07:09:01.601Z,100011.48
2018-12-04T07:10:06.918Z,100009.18
2018-12-04T07:11:12.578Z,100015.59
2018-12-04T07:12:18.215Z,100016.48
2018-12-04T07:13:23.821Z,100012.28
2018-12-04T07:14:29.417Z,100018.77
2018-12-04T07:15:35.057Z,100019.50
2018-12-04T07:16:40.654Z,100018.20
2018-12-04T07:17:46.246Z,100029.61
2018-12-04T07:18:51.891Z,100022.55
2018-12-04T07:19:57.516Z,100023.80
2018-12-04T07:21:03.215Z,100030.70
2018-12-04T07:22:08.887Z,100038.76
2018-12-04T07:23:14.496Z,100039.40
2018-12-04T07:24:20.130Z,100043.19
2018-12-04T07:25:25.757Z,100044.70
2018-12-04T07:26:31.357Z,100050.35
2018-12-04T07:27:36.972Z,100053.27
2018-12-04T07:28:42.586Z,100054.87
2018-12-04T07:29:48.195Z,100060.98
2018-12-04T07:30:53.799Z,100056.91
2018-12-04T07:31:59.467Z,100063.86
2018-12-04T07:33:05.079Z,100066.99
2018-12-04T07:34:10.728Z,100069.56
2018-12-04T07:35:16.370Z,100070.97
2018-12-04T07:36:21.996Z,100067.83
2018-12-04T07:37:27.630Z,100079.70
2018-12-04T07:38:33.267Z,100084.36
2018-12-04T07:39:38.891Z,100090.02
2018-12-04T07:40:44.541Z,100089.66
2018-12-04T07:41:50.377Z,100095.77
2018-12-04T07:42:55.964Z,100100.90
2018-12-04T07:44:01.215Z,100104.77
2018-12-04T07:45:06.136Z,100106.58
2018-12-04T07:46:11.913Z,100109.41
2018-12-04T07:47:17.488Z,100110.47
2018-12-04T07:48:23.083Z,100114.30
2018-12-04T07:49:28.733Z,100117.73
2018-12-04T07:50:34.340Z,100119.02
2018-12-04T07:51:40.003Z,100123.09
2018-12-04T07:52:45.666Z,100124.17
2018-12-04T07:53:51.269Z,100129.73
2018-12-04T07:54:56.643Z,100132.64
2018-12-04T07:56:02.506Z,100136.28
2018-12-04T07:57:09.501Z,100135.70
2018-12-04T07:58:15.748Z,100134.48
2018-12-04T07:59:20.575Z,100140.58
2018-12-04T08:00:26.144Z,100141.25
2018-12-04T08:01:31.787Z,100143.75
2018-12-04T08:02:37.357Z,100145.67
2018-12-04T08:03:43.001Z,100155.69
2018-12-04T08:04:48.782Z,100161.32
2018-12-04T08:05:55.386Z,100164.70
2018-12-04T08:07:01.052Z,100165.78
2018-12-04T08:08:06.634Z,100165.02
2018-12-04T08:09:12.227Z,100168.31
2018-12-04T08:10:17.624Z,100168.84
2018-12-04T08:11:23.269Z,100184.05
2018-12-04T08:12:28.894Z,100183.80
2018-12-04T08:13:34.503Z,100179.97
2018-12-04T08:14:40.125Z,100187.47
2018-12-04T08:15:45.528Z,100187.98
2018-12-04T08:16:51.253Z,100185.41
2018-12-04T08:17:57.462Z,100189.06
2018-12-04T08:19:04.551Z,100197.42
2018-12-04T08:20:10.205Z,100189.65
2018-12-04T08:21:15.936Z,100196.86
2018-12-04T08:22:21.728Z,100199.76
2018-12-04T08:23:27.324Z,100193.45
2018-12-04T08:24:32.906Z,100203.33
2018-12-04T08:25:38.551Z,100204.75
2018-12-04T08:26:44.702Z,100204.44
2018-12-04T08:27:50.564Z,100206.70
2018-12-04T08:28:56.210Z,100204.12
2018-12-04T08:30:01.823Z,100209.55
2018-12-04T08:31:07.397Z,100214.48
2018-12-04T08:32:13.072Z,100223.92
2018-12-04T08:33:18.689Z,100217.82
2018-12-04T08:34:24.298Z,100218.52
2018-12-04T08:35:29.944Z,100227.02
2018-12-04T08:36:35.845Z,100226.35
2018-12-04T08:37:41.581Z,100230.79
2018-12-04T08:38:47.201Z,100231.71
2018-12-04T08:39:52.976Z,100232.48
2018-12-04T08:41:00.247Z,100235.64
2018-12-04T08:42:07.103Z,100238.98
2018-12-04T08:43:14.525Z,100241.97
2018-12-04T08:44:21.178Z,100246.11
2018-12-04T08:45:27.767Z,100243.54
2018-12-04T08:46:35.156Z,100261.45
2018-12-04T08:47:43.531Z,100253.05
2018-12-04T08:48:50.196Z,100255.03
2018-12-04T08:49:56.997Z,100261.27
2018-12-04T08:51:03.817Z,100262.59
2018-12-04T08:52:10.373Z,100264.52
2018-12-04T08:53:16.595Z,100269.89
2018-12-04T08:54:22.183Z,100276.00
2018-12-04T08:55:27.780Z,100276.59
2018-12-04T08:56:33.464Z,100276.30
2018-12-04T08:57:39.123Z,100278.63
2018-12-04T08:58:44.762Z,100283.16
2018-12-04T08:59:50.336Z,100284.84
2018-12-04T09:00:55.927Z,100291.25
2018-12-04T09:02:01.553Z,100288.42
2018-12-04T09:03:07.300Z,100285.38
2018-12-04T09:04:13.450Z,100285.03
2018-12-04T09:05:19.807Z,100297.83
2018-12-04T09:06:25.124Z,100300.36
2018-12-04T09:07:30.728Z,100295.12
2018-12-04T09:08:36.718Z,100290.77
2018-12-04T09:09:42.745Z,100298.31
2018-12-04T09:10:48.499Z,100302.60
2018-12-04T09:11:54.176Z,100307.27
2018-12-04T09:12:59.800Z,100298.52
2018-12-04T09:14:05.383Z,100301.78
2018-12-04T09:15:11.305Z,100305.52
2018-12-04T09:16:16.886Z,100305.10
2018-12-04T09:17:22.627Z,100308.37
2018-12-04T09:18:28.253Z,100318.73
2018-12-04T09:19:34.209Z,100317.77
2018-12-04T09:20:41.395Z,100324.63
2018-12-04T09:21:47.206Z,100325.41
2018-12-04T09:22:52.945Z,100334.41
2018-12-04T09:23:59.112Z,100324.13
2018-12-04T09:25:04.130Z,100333.45
2018-12-04T09:26:09.793Z,100333.45
2018-12-04T09:27:15.645Z,100335.52
2018-12-04T09:28:21.386Z,100336.34
2018-12-04T09:29:27.051Z,100342.70
2018-12-04T09:30:32.824Z,100349.66
2018-12-04T09:31:38.449Z,100357.07
2018-12-04T09:32:44.752Z,100352.41
2018-12-04T09:33:50.409Z,100360.25
2018-12-04T09:34:56.063Z,100359.31
2018-12-04T09:36:01.691Z,100368.05
2018-12-04T09:37:07.332Z,100368.92
2018-12-04T09:38:12.982Z,100357.73
2018-12-04T09:39:18.589Z,100365.79
2018-12-04T09:40:24.218Z,100373.91
2018-12-04T09:41:29.846Z,100363.55
2018-12-04T09:42:35.187Z,100370.84
2018-12-04T09:43:40.769Z,100370.08
2018-12-04T09:44:46.357Z,100374.59
2018-12-04T09:45:51.990Z,100370.95
2018-12-04T09:46:57.621Z,100371.91
2018-12-04T09:48:03.255Z,100375.84
2018-12-04T09:49:08.939Z,100373.92
2018-12-04T09:50:14.743Z,100371.18
2018-12-04T09:51:21.016Z,100373.34
2018-12-04T09:52:26.654Z,100375.63
2018-12-04T09:53:32.314Z,100375.75
2018-12-04T09:54:37.918Z,100373.69
2018-12-04T09:55:43.539Z,100383.52
2018-12-04T09:56:49.132Z,100377.29
2018-12-04T09:57:54.787Z,100381.04
2018-12-04T09:59:00.447Z,100387.91
2018-12-04T10:00:05.348Z,100390.94
2018-12-04T10:01:10.940Z,100391.08
2018-12-04T10:02:16.541Z,100401.48
2018-12-04T10:03:22.204Z,100400.51
2018-12-04T10:04:27.810Z,100393.15
2018-12-04T10:05:33.377Z,100395.30
2018-12-04T10:06:38.979Z,100393.80
2018-12-04T10:07:44.611Z,100399.97
2018-12-04T10:08:50.220Z,100392.66
2018-12-04T10:10:00.594Z,100396.97
2018-12-04T10:11:01.500Z,100400.66
2018-12-04T10:12:06.760Z,100401.70
2018-12-04T10:13:12.428Z,100396.92
2018-12-04T10:14:18.658Z,100398.73
2018-12-04T10:15:23.067Z,100400.90
2018-12-04T10:16:28.733Z,100395.81
2018-12-04T10:17:34.310Z,100396.48
2018-12-04T10:18:39.936Z,100400.39
2018-12-04T10:19:45.601Z,100398.30
2018-12-04T10:20:51.205Z,100392.81
2018-12-04T10:21:56.851Z,100400.63
2018-12-04T10:23:02.501Z,100401.56
2018-12-04T10:24:08.101Z,100410.17
2018-12-04T10:25:13.353Z,100402.20
2018-12-04T10:26:18.617Z,100407.02
2018-12-04T10:27:24.264Z,100409.39
2018-12-04T10:28:29.879Z,100414.59
2018-12-04T10:29:35.450Z,100414.34
2018-12-04T10:30:40.909Z,100417.38
2018-12-04T10:31:46.562Z,100416.92
2018-12-04T10:32:52.131Z,100418.31
2018-12-04T10:33:57.776Z,100419.41
2018-12-04T10:35:02.996Z,100415.71
2018-12-04T10:36:09.038Z,100417.66
2018-12-04T10:37:14.216Z,100416.14
2018-12-04T10:38:19.879Z,100425.17
2018-12-04T10:39:25.494Z,100412.90
2018-12-04T10:40:30.749Z,100422.41
2018-12-04T10:41:36.012Z,100428.52
2018-12-04T10:42:41.625Z,100430.85
2018-12-04T10:43:47.278Z,100442.00
2018-12-04T10:44:52.914Z,100441.10
2018-12-04T10:45:58.478Z,100440.33
2018-12-04T10:47:04.130Z,100442.98
2018-12-04T10:48:09.707Z,100446.41
2018-12-04T10:49:15.352Z,100456.73
2018-12-04T10:50:21.000Z,100452.88
2018-12-04T10:51:26.713Z,100453.73
2018-12-04T10:52:32.333Z,100454.11
2018-12-04T10:53:37.948Z,100463.12
2018-12-04T10:54:43.545Z,100460.95
2018-12-04T10:55:49.179Z,100465.13
2018-12-04T10:56:54.807Z,100467.30
2018-12-04T10:58:00.436Z,100468.34
2018-12-04T10:59:05.680Z,100464.55
2018-12-04T11:00:10.378Z,100459.64
2018-12-04T11:01:26.614Z,100467.02
2018-12-04T11:02:33.027Z,100471.69
2018-12-04T11:03:38.437Z,100468.48
2018-12-04T11:04:44.122Z,100471.58
2018-12-04T11:05:49.801Z,100471.22
2018-12-04T11:06:55.414Z,100474.33
2018-12-04T11:08:01.089Z,100464.55
2018-12-04T11:09:06.075Z,100462.21
2018-12-04T11:10:11.763Z,100473.03
2018-12-04T11:11:17.387Z,100470.10
2018-12-04T11:12:22.958Z,100478.20
2018-12-04T11:13:28.589Z,100475.05
2018-12-04T11:14:34.204Z,100481.44
2018-12-04T11:15:39.814Z,100484.95
2018-12-04T11:16:45.414Z,100478.86
2018-12-04T11:17:51.664Z,100484.14
2018-12-04T11:18:56.912Z,100491.45
2018-12-04T11:20:02.486Z,100497.84
2018-12-04T11:21:08.083Z,100498.86
2018-12-04T11:22:13.948Z,100504.03
2018-12-04T11:23:19.605Z,100502.14
2018-12-04T11:24:25.295Z,100501.56
2018-12-04T11:25:30.921Z,100515.27
2018-12-04T11:26:36.217Z,100519.91
2018-12-04T11:27:41.818Z,100510.04
2018-12-04T11:28:46.760Z,100509.95
2018-12-04T11:29:52.341Z,100516.09
2018-12-04T11:30:58.059Z,100510.70
2018-12-04T11:32:03.503Z,100512.27
2018-12-04T11:33:09.408Z,100522.73
2018-12-04T11:34:15.168Z,100520.53
2018-12-04T11:35:20.773Z,100517.48
2018-12-04T11:36:26.359Z,100520.55
2018-12-04T11:37:31.980Z,100524.18
2018-12-04T11:38:37.591Z,100527.64
2018-12-04T11:39:43.266Z,100524.14
2018-12-04T11:40:48.511Z,100526.44
2018-12-04T11:41:53.820Z,100535.13
2018-12-04T11:42:59.391Z,100525.18
2018-12-04T11:44:05.188Z,100529.13
2018-12-04T11:45:10.745Z,100521.74
2018-12-04T11:46:16.363Z,100527.84
2018-12-04T11:47:22.029Z,100528.45
2018-12-04T11:48:27.597Z,100534.19
2018-12-04T11:49:33.221Z,100533.54
2018-12-04T11:50:38.827Z,100537.15
2018-12-04T11:51:44.395Z,100543.47
2018-12-04T11:52:50.006Z,100546.79
2018-12-04T11:53:55.671Z,100541.88
2018-12-04T11:55:01.299Z,100542.43
2018-12-04T11:56:06.887Z,100548.91
2018-12-04T11:57:12.541Z,100551.14
2018-12-04T11:58:18.187Z,100544.86
2018-12-04T11:59:23.822Z,100545.82
2018-12-04T12:00:29.984Z,100541.72
2018-12-04T12:01:36.733Z,100546.53
2018-12-04T12:02:42.994Z,100547.70
2018-12-04T12:03:48.632Z,100550.01
2018-12-04T12:04:54.265Z,100550.94
2018-12-04T12:06:00.452Z,100557.27
2018-12-04T12:07:06.136Z,100555.51
2018-12-04T12:08:11.748Z,100547.27
2018-12-04T12:09:17.384Z,100560.86
2018-12-04T12:10:23.013Z,100559.20
2018-12-04T12:11:28.610Z,100564.34
2018-12-04T12:12:34.203Z,100566.56
2018-12-04T12:13:39.886Z,100571.48
2018-12-04T12:14:46.257Z,100573.89
2018-12-04T12:15:53.131Z,100570.56
2018-12-04T12:16:59.714Z,100579.40
2018-12-04T12:18:05.948Z,100581.77
2018-12-04T12:19:11.595Z,100573.81
2018-12-04T12:20:17.221Z,100588.52
2018-12-04T12:21:22.888Z,100580.89
2018-12-04T12:22:28.500Z,100583.61
2018-12-04T12:23:34.154Z,100579.66
2018-12-04T12:24:39.813Z,100580.37
2018-12-04T12:25:45.431Z,100583.98
2018-12-04T12:26:51.100Z,100584.28
2018-12-04T12:27:57.094Z,100587.62
2018-12-04T12:29:03.400Z,100582.41
2018-12-04T12:30:08.400Z,100586.00
2018-12-04T12:31:14.019Z,100585.82
2018-12-04T12:32:19.642Z,100587.77
2018-12-04T12:33:25.222Z,100590.50
2018-12-04T12:34:30.856Z,100593.89
2018-12-04T12:35:36.499Z,100600.89
2018-12-04T12:36:42.118Z,100599.78
2018-12-04T12:37:47.739Z,100604.69
2018-12-04T12:38:53.332Z,100603.91
2018-12-04T12:39:58.622Z,100613.27
2018-12-04T12:41:04.237Z,100612.31
2018-12-04T12:42:09.859Z,100611.54
2018-12-04T12:43:15.488Z,100608.39